sensor_id;sensor_type;location;lat;lon;timestamp;pressure;altitude;pressure_sealevel;temperature;humidity
71621;BME280;59471;42.254;23.102;2023-07-20T00:02:20;95592.53;;;23.65;55.96
71621;BME280;59471;42.254;23.102;2023-07-20T00:04:45;95593.63;;;23.84;55.86
71621;BME280;59471;42.254;23.102;2023-07-20T00:07:11;95597.91;;;23.75;55.79
71621;BME280;59471;42.254;23.102;2023-07-20T00:09:36;95587.41;;;23.58;56.70
71621;BME280;59471;42.254;23.102;2023-07-20T00:12:02;95588.50;;;23.62;56.55
71621;BME280;59471;42.254;23.102;2023-07-20T00:14:27;95583.09;;;23.31;57.52
71621;BME280;59471;42.254;23.102;2023-07-20T00:16:55;95578.81;;;23.35;57.72
71621;BME280;59471;42.254;23.102;2023-07-20T00:19:23;95581.53;;;23.41;57.88
71621;BME280;59471;42.254;23.102;2023-07-20T00:21:49;95572.44;;;23.42;57.72
71621;BME280;59471;42.254;23.102;2023-07-20T00:24:14;95569.75;;;23.36;58.00
71621;BME280;59471;42.254;23.102;2023-07-20T00:26:40;95571.63;;;23.41;57.97
71621;BME280;59471;42.254;23.102;2023-07-20T00:29:06;95575.63;;;23.28;58.36
71621;BME280;59471;42.254;23.102;2023-07-20T00:31:31;95572.94;;;23.28;58.02
71621;BME280;59471;42.254;23.102;2023-07-20T00:33:57;95570.25;;;23.18;58.05
71621;BME280;59471;42.254;23.102;2023-07-20T00:36:22;95565.41;;;23.10;58.51
71621;BME280;59471;42.254;23.102;2023-07-20T00:38:48;95571.06;;;23.24;58.45
71621;BME280;59471;42.254;23.102;2023-07-20T00:41:13;95571.31;;;23.17;59.16
71621;BME280;59471;42.254;23.102;2023-07-20T00:43:39;95575.78;;;23.01;59.54
71621;BME280;59471;42.254;23.102;2023-07-20T00:46:05;95568.59;;;22.97;59.66
71621;BME280;59471;42.254;23.102;2023-07-20T00:48:31;95567.94;;;22.74;60.43
71621;BME280;59471;42.254;23.102;2023-07-20T00:50:59;95564.47;;;22.79;60.66
71621;BME280;59471;42.254;23.102;2023-07-20T00:53:26;95562.06;;;22.77;61.00
71621;BME280;59471;42.254;23.102;2023-07-20T00:55:52;95556.75;;;22.77;60.92
71621;BME280;59471;42.254;23.102;2023-07-20T00:58:17;95556.13;;;22.60;62.30
71621;BME280;59471;42.254;23.102;2023-07-20T01:00:44;95562.41;;;22.33;62.69
71621;BME280;59471;42.254;23.102;2023-07-20T01:03:09;95560.25;;;22.30;63.16
71621;BME280;59471;42.254;23.102;2023-07-20T01:08:18;95548.72;;;22.25;63.45
71621;BME280;59471;42.254;23.102;2023-07-20T01:10:58;95542.03;;;22.17;63.37
71621;BME280;59471;42.254;23.102;2023-07-20T01:13:29;95545.41;;;22.07;63.91
71621;BME280;59471;42.254;23.102;2023-07-20T01:16:01;95557.38;;;22.05;64.33
71621;BME280;59471;42.254;23.102;2023-07-20T01:18:27;95555.69;;;21.88;64.48
71621;BME280;59471;42.254;23.102;2023-07-20T01:20:59;95560.97;;;21.83;64.20
71621;BME280;59471;42.254;23.102;2023-07-20T01:27:00;95555.56;;;21.78;64.78
71621;BME280;59471;42.254;23.102;2023-07-20T01:32:47;95539.59;;;21.46;65.88
71621;BME280;59471;42.254;23.102;2023-07-20T01:35:14;95543.56;;;21.43;65.75
71621;BME280;59471;42.254;23.102;2023-07-20T01:37:43;95548.59;;;21.40;65.67
71621;BME280;59471;42.254;23.102;2023-07-20T01:40:10;95548.75;;;21.28;66.11
71621;BME280;59471;42.254;23.102;2023-07-20T01:42:36;95543.06;;;21.46;65.26
71621;BME280;59471;42.254;23.102;2023-07-20T01:45:02;95540.31;;;21.68;65.10
71621;BME280;59471;42.254;23.102;2023-07-20T01:47:28;95534.06;;;21.52;65.32
71621;BME280;59471;42.254;23.102;2023-07-20T01:49:53;95534.53;;;21.44;65.79
71621;BME280;59471;42.254;23.102;2023-07-20T01:52:19;95534.53;;;21.44;66.25
71621;BME280;59471;42.254;23.102;2023-07-20T01:54:44;95545.03;;;21.34;66.15
71621;BME280;59471;42.254;23.102;2023-07-20T01:57:10;95537.03;;;21.29;66.61
71621;BME280;59471;42.254;23.102;2023-07-20T01:59:35;95546.00;;;21.45;65.79
71621;BME280;59471;42.254;23.102;2023-07-20T02:02:01;95544.34;;;21.17;67.03
71621;BME280;59471;42.254;23.102;2023-07-20T02:04:26;95531.97;;;20.78;68.11
71621;BME280;59471;42.254;23.102;2023-07-20T02:06:52;95533.69;;;20.90;67.31
71621;BME280;59471;42.254;23.102;2023-07-20T02:09:17;95538.97;;;20.85;67.55
71621;BME280;59471;42.254;23.102;2023-07-20T02:11:43;95541.72;;;20.95;67.16
71621;BME280;59471;42.254;23.102;2023-07-20T02:14:08;95545.47;;;20.94;67.51
71621;BME280;59471;42.254;23.102;2023-07-20T02:16:34;95550.78;;;20.94;67.81
71621;BME280;59471;42.254;23.102;2023-07-20T02:18:59;95546.69;;;20.86;67.55
71621;BME280;59471;42.254;23.102;2023-07-20T02:21:25;95548.75;;;20.79;68.29
71621;BME280;59471;42.254;23.102;2023-07-20T02:23:50;95549.34;;;20.86;67.77
71621;BME280;59471;42.254;23.102;2023-07-20T02:26:16;95542.91;;;20.82;67.92
71621;BME280;59471;42.254;23.102;2023-07-20T02:28:41;95543.31;;;20.69;68.23
71621;BME280;59471;42.254;23.102;2023-07-20T02:31:07;95544.91;;;20.70;68.23
71621;BME280;59471;42.254;23.102;2023-07-20T02:33:32;95548.00;;;20.62;68.45
71621;BME280;59471;42.254;23.102;2023-07-20T02:35:58;95536.50;;;20.56;68.33
71621;BME280;59471;42.254;23.102;2023-07-20T02:38:23;95539.09;;;20.73;68.24
71621;BME280;59471;42.254;23.102;2023-07-20T02:40:49;95538.59;;;20.76;68.57
71621;BME280;59471;42.254;23.102;2023-07-20T02:43:15;95543.72;;;20.82;67.92
71621;BME280;59471;42.254;23.102;2023-07-20T02:45:41;95535.00;;;20.87;67.69
71621;BME280;59471;42.254;23.102;2023-07-20T02:48:08;95533.69;;;20.90;67.77
71621;BME280;59471;42.254;23.102;2023-07-20T02:50:33;95535.00;;;20.87;68.01
71621;BME280;59471;42.254;23.102;2023-07-20T02:53:00;95530.97;;;20.85;68.29
71621;BME280;59471;42.254;23.102;2023-07-20T02:55:26;95524.53;;;20.80;68.23
71621;BME280;59471;42.254;23.102;2023-07-20T02:57:52;95512.88;;;20.59;68.56
71621;BME280;59471;42.254;23.102;2023-07-20T03:00:17;95516.38;;;20.43;69.18
71621;BME280;59471;42.254;23.102;2023-07-20T03:02:45;95520.13;;;20.47;68.91
71621;BME280;59471;42.254;23.102;2023-07-20T03:05:13;95515.38;;;20.27;69.53
71621;BME280;59471;42.254;23.102;2023-07-20T03:07:39;95515.88;;;20.46;69.16
71621;BME280;59471;42.254;23.102;2023-07-20T03:10:05;95523.50;;;20.43;69.16
71621;BME280;59471;42.254;23.102;2023-07-20T03:12:34;95525.94;;;20.44;69.22
71621;BME280;59471;42.254;23.102;2023-07-20T03:15:02;95519.22;;;20.36;69.49
71621;BME280;59471;42.254;23.102;2023-07-20T03:17:28;95527.72;;;20.38;69.45
71621;BME280;59471;42.254;23.102;2023-07-20T03:19:53;95526.59;;;20.51;69.20
71621;BME280;59471;42.254;23.102;2023-07-20T03:22:19;95530.78;;;20.47;69.44
71621;BME280;59471;42.254;23.102;2023-07-20T03:24:46;95532.88;;;20.45;69.71
71621;BME280;59471;42.254;23.102;2023-07-20T03:27:12;95538.69;;;20.42;69.63
71621;BME280;59471;42.254;23.102;2023-07-20T03:29:38;95546.16;;;20.45;69.59
71621;BME280;59471;42.254;23.102;2023-07-20T03:32:03;95548.28;;;20.43;69.65
71621;BME280;59471;42.254;23.102;2023-07-20T03:34:29;95556.75;;;20.40;70.09
71621;BME280;59471;42.254;23.102;2023-07-20T03:36:55;95562.19;;;20.50;69.74
71621;BME280;59471;42.254;23.102;2023-07-20T03:39:22;95562.06;;;20.40;69.92
71621;BME280;59471;42.254;23.102;2023-07-20T03:41:48;95566.34;;;20.41;69.85
71621;BME280;59471;42.254;23.102;2023-07-20T03:44:13;95550.28;;;20.36;69.98
71621;BME280;59471;42.254;23.102;2023-07-20T03:46:39;95546.91;;;20.41;70.23
71621;BME280;59471;42.254;23.102;2023-07-20T03:49:04;95541.91;;;20.44;69.95
71621;BME280;59471;42.254;23.102;2023-07-20T03:51:31;95551.44;;;20.40;70.23
71621;BME280;59471;42.254;23.102;2023-07-20T03:53:57;95553.53;;;20.38;70.54
71621;BME280;59471;42.254;23.102;2023-07-20T03:56:23;95552.91;;;20.14;71.37
71621;BME280;59471;42.254;23.102;2023-07-20T03:58:49;95561.59;;;20.43;70.56
71621;BME280;59471;42.254;23.102;2023-07-20T04:01:15;95570.28;;;20.55;70.11
71621;BME280;59471;42.254;23.102;2023-07-20T04:03:42;95569.84;;;20.64;69.74
71621;BME280;59471;42.254;23.102;2023-07-20T04:06:08;95567.50;;;20.67;69.75
71621;BME280;59471;42.254;23.102;2023-07-20T04:08:34;95565.09;;;20.88;69.39
71621;BME280;59471;42.254;23.102;2023-07-20T04:11:03;95556.44;;;21.02;69.23
71621;BME280;59471;42.254;23.102;2023-07-20T04:13:29;95552.31;;;20.68;70.30
71621;BME280;59471;42.254;23.102;2023-07-20T04:15:58;95548.97;;;20.99;69.76
71621;BME280;59471;42.254;23.102;2023-07-20T04:18:24;95545.66;;;21.14;69.38
71621;BME280;59471;42.254;23.102;2023-07-20T04:20:49;95550.78;;;21.21;68.66
71621;BME280;59471;42.254;23.102;2023-07-20T04:23:15;95551.91;;;21.25;68.20
71621;BME280;59471;42.254;23.102;2023-07-20T04:25:41;95555.00;;;21.17;69.18
71621;BME280;59471;42.254;23.102;2023-07-20T04:28:07;95546.88;;;21.56;67.93
71621;BME280;59471;42.254;23.102;2023-07-20T04:30:35;95536.50;;;21.59;67.41
71621;BME280;59471;42.254;23.102;2023-07-20T04:33:01;95534.56;;;21.49;68.09
71621;BME280;59471;42.254;23.102;2023-07-20T04:35:52;95543.63;;;21.48;68.86
71621;BME280;59471;42.254;23.102;2023-07-20T04:38:19;95544.31;;;21.66;68.14
71621;BME280;59471;42.254;23.102;2023-07-20T04:40:46;95544.84;;;21.68;67.89
71621;BME280;59471;42.254;23.102;2023-07-20T04:43:14;95542.22;;;21.73;67.30
71621;BME280;59471;42.254;23.102;2023-07-20T04:45:40;95542.25;;;21.78;66.99
71621;BME280;59471;42.254;23.102;2023-07-20T04:48:11;95543.66;;;21.86;66.96
71621;BME280;59471;42.254;23.102;2023-07-20T04:50:39;95545.41;;;21.70;67.04
71621;BME280;59471;42.254;23.102;2023-07-20T04:53:05;95547.63;;;21.83;67.35
71621;BME280;59471;42.254;23.102;2023-07-20T04:55:31;95553.81;;;21.89;66.97
71621;BME280;59471;42.254;23.102;2023-07-20T04:58:00;95547.78;;;22.04;65.97
71621;BME280;59471;42.254;23.102;2023-07-20T05:00:26;95558.03;;;22.17;66.23
71621;BME280;59471;42.254;23.102;2023-07-20T05:02:51;95565.09;;;22.38;64.70
71621;BME280;59471;42.254;23.102;2023-07-20T05:05:17;95549.66;;;22.51;63.74
71621;BME280;59471;42.254;23.102;2023-07-20T05:07:43;95546.53;;;22.64;62.01
71621;BME280;59471;42.254;23.102;2023-07-20T05:10:08;95549.59;;;22.35;63.13
71621;BME280;59471;42.254;23.102;2023-07-20T05:12:34;95544.81;;;22.37;63.06
71621;BME280;59471;42.254;23.102;2023-07-20T05:14:59;95548.63;;;22.52;63.70
71621;BME280;59471;42.254;23.102;2023-07-20T05:17:25;95548.50;;;22.31;63.98
71621;BME280;59471;42.254;23.102;2023-07-20T05:19:50;95547.88;;;22.61;63.17
71621;BME280;59471;42.254;23.102;2023-07-20T05:22:16;95547.78;;;22.99;63.05
71621;BME280;59471;42.254;23.102;2023-07-20T05:24:42;95546.19;;;23.23;61.41
71621;BME280;59471;42.254;23.102;2023-07-20T05:27:08;95541.38;;;23.05;63.91
71621;BME280;59471;42.254;23.102;2023-07-20T05:29:33;95537.13;;;23.19;61.56
71621;BME280;59471;42.254;23.102;2023-07-20T05:31:59;95537.66;;;23.16;61.92
71621;BME280;59471;42.254;23.102;2023-07-20T05:34:24;95542.50;;;23.24;61.95
71621;BME280;59471;42.254;23.102;2023-07-20T05:36:50;95542.72;;;23.23;62.54
71621;BME280;59471;42.254;23.102;2023-07-20T05:39:18;95543.88;;;23.52;61.84
71621;BME280;59471;42.254;23.102;2023-07-20T05:41:44;95544.66;;;23.58;61.43
71621;BME280;59471;42.254;23.102;2023-07-20T05:44:09;95547.06;;;23.65;61.21
71621;BME280;59471;42.254;23.102;2023-07-20T05:46:35;95548.97;;;23.74;61.25
71621;BME280;59471;42.254;23.102;2023-07-20T05:49:01;95552.97;;;24.02;58.41
71621;BME280;59471;42.254;23.102;2023-07-20T05:51:27;95552.13;;;24.17;57.09
71621;BME280;59471;42.254;23.102;2023-07-20T05:53:53;95551.06;;;24.08;58.86
71621;BME280;59471;42.254;23.102;2023-07-20T05:56:18;95555.88;;;24.16;58.98
71621;BME280;59471;42.254;23.102;2023-07-20T05:58:44;95558.56;;;24.21;60.14
71621;BME280;59471;42.254;23.102;2023-07-20T06:01:09;95548.88;;;24.41;58.28
71621;BME280;59471;42.254;23.102;2023-07-20T06:03:35;95551.56;;;24.41;57.90
71621;BME280;59471;42.254;23.102;2023-07-20T06:06:01;95552.66;;;24.45;57.20
71621;BME280;59471;42.254;23.102;2023-07-20T06:08:28;95553.19;;;24.47;58.21
71621;BME280;59471;42.254;23.102;2023-07-20T06:10:54;95554.16;;;24.77;56.91
71621;BME280;59471;42.254;23.102;2023-07-20T06:13:20;95541.72;;;24.96;57.41
71621;BME280;59471;42.254;23.102;2023-07-20T06:15:45;95547.88;;;24.96;56.49
71621;BME280;59471;42.254;23.102;2023-07-20T06:18:12;95550.78;;;25.05;55.69
71621;BME280;59471;42.254;23.102;2023-07-20T06:20:38;95551.28;;;25.23;54.26
71621;BME280;59471;42.254;23.102;2023-07-20T06:23:04;95535.25;;;25.12;55.47
71621;BME280;59471;42.254;23.102;2023-07-20T06:25:29;95536.47;;;25.30;54.50
71621;BME280;59471;42.254;23.102;2023-07-20T06:27:55;95535.13;;;25.33;55.20
71621;BME280;59471;42.254;23.102;2023-07-20T06:30:21;95532.34;;;25.48;54.42
71621;BME280;59471;42.254;23.102;2023-07-20T06:32:47;95521.28;;;25.20;55.91
71621;BME280;59471;42.254;23.102;2023-07-20T06:35:13;95527.09;;;25.33;54.77
71621;BME280;59471;42.254;23.102;2023-07-20T06:37:39;95518.19;;;25.77;52.23
71621;BME280;59471;42.254;23.102;2023-07-20T06:40:05;95515.16;;;25.88;50.58
71621;BME280;59471;42.254;23.102;2023-07-20T06:42:34;95514.41;;;25.78;51.68
71621;BME280;59471;42.254;23.102;2023-07-20T06:45:00;95507.44;;;26.11;51.72
71621;BME280;59471;42.254;23.102;2023-07-20T06:47:25;95513.50;;;26.22;50.99
71621;BME280;59471;42.254;23.102;2023-07-20T06:49:52;95504.13;;;26.48;50.33
71621;BME280;59471;42.254;23.102;2023-07-20T06:52:18;95508.13;;;26.46;50.57
71621;BME280;59471;42.254;23.102;2023-07-20T06:54:43;95496.56;;;26.50;50.67
71621;BME280;59471;42.254;23.102;2023-07-20T06:57:09;95513.84;;;26.39;52.51
71621;BME280;59471;42.254;23.102;2023-07-20T06:59:34;95514.22;;;26.56;50.15
71621;BME280;59471;42.254;23.102;2023-07-20T07:02:00;95520.16;;;26.53;50.60
71621;BME280;59471;42.254;23.102;2023-07-20T07:04:25;95530.78;;;26.34;52.12
71621;BME280;59471;42.254;23.102;2023-07-20T07:06:51;95532.97;;;26.03;50.57
71621;BME280;59471;42.254;23.102;2023-07-20T07:09:17;95546.06;;;26.10;50.90
71621;BME280;59471;42.254;23.102;2023-07-20T07:11:43;95554.22;;;26.00;50.41
71621;BME280;59471;42.254;23.102;2023-07-20T07:14:08;95550.59;;;26.15;50.44
71621;BME280;59471;42.254;23.102;2023-07-20T07:16:34;95556.88;;;26.29;50.47
71621;BME280;59471;42.254;23.102;2023-07-20T07:18:59;95547.94;;;26.68;50.96
71621;BME280;59471;42.254;23.102;2023-07-20T07:21:25;95551.22;;;26.60;50.13
71621;BME280;59471;42.254;23.102;2023-07-20T07:23:50;95554.44;;;26.03;50.69
71621;BME280;59471;42.254;23.102;2023-07-20T07:26:18;95550.50;;;26.25;51.12
71621;BME280;59471;42.254;23.102;2023-07-20T07:28:44;95562.09;;;26.44;51.04
71621;BME280;59471;42.254;23.102;2023-07-20T07:31:10;95563.19;;;26.43;51.36
71621;BME280;59471;42.254;23.102;2023-07-20T07:33:35;95555.81;;;26.83;52.81
71621;BME280;59471;42.254;23.102;2023-07-20T07:36:01;95556.34;;;27.04;49.45
71621;BME280;59471;42.254;23.102;2023-07-20T07:38:26;95549.47;;;27.17;48.50
71621;BME280;59471;42.254;23.102;2023-07-20T07:40:52;95556.56;;;27.08;49.65
71621;BME280;59471;42.254;23.102;2023-07-20T07:43:17;95563.28;;;27.29;49.54
71621;BME280;59471;42.254;23.102;2023-07-20T07:45:43;95563.88;;;27.64;47.96
71621;BME280;59471;42.254;23.102;2023-07-20T07:48:09;95570.38;;;27.77;48.39
71621;BME280;59471;42.254;23.102;2023-07-20T07:50:36;95569.66;;;27.71;47.75
71621;BME280;59471;42.254;23.102;2023-07-20T07:53:02;95580.75;;;27.50;48.97
71621;BME280;59471;42.254;23.102;2023-07-20T07:55:28;95571.41;;;28.00;48.47
71621;BME280;59471;42.254;23.102;2023-07-20T07:57:54;95570.06;;;28.30;46.63
71621;BME280;59471;42.254;23.102;2023-07-20T08:00:20;95557.09;;;28.18;46.54
71621;BME280;59471;42.254;23.102;2023-07-20T08:02:45;95528.81;;;28.34;47.64
71621;BME280;59471;42.254;23.102;2023-07-20T08:05:14;95534.94;;;28.54;46.96
71621;BME280;59471;42.254;23.102;2023-07-20T08:07:39;95526.22;;;28.84;46.21
71621;BME280;59471;42.254;23.102;2023-07-20T08:10:06;95521.44;;;28.81;45.46
71621;BME280;59471;42.254;23.102;2023-07-20T08:12:32;95507.03;;;29.00;45.97
71621;BME280;59471;42.254;23.102;2023-07-20T08:14:58;95499.34;;;28.93;46.58
71621;BME280;59471;42.254;23.102;2023-07-20T08:17:23;95504.81;;;29.29;46.17
71621;BME280;59471;42.254;23.102;2023-07-20T08:19:49;95509.72;;;29.50;44.88
71621;BME280;59471;42.254;23.102;2023-07-20T08:22:15;95522.16;;;29.37;45.44
71621;BME280;59471;42.254;23.102;2023-07-20T08:24:42;95521.16;;;29.33;43.28
71621;BME280;59471;42.254;23.102;2023-07-20T08:27:09;95523.28;;;29.22;43.88
71621;BME280;59471;42.254;23.102;2023-07-20T08:29:35;95520.84;;;29.34;45.17
71621;BME280;59471;42.254;23.102;2023-07-20T08:32:01;95514.34;;;29.72;45.98
71621;BME280;59471;42.254;23.102;2023-07-20T08:34:27;95505.84;;;30.10;46.07
71621;BME280;59471;42.254;23.102;2023-07-20T08:36:53;95501.47;;;30.22;44.87
71621;BME280;59471;42.254;23.102;2023-07-20T08:39:18;95491.00;;;30.21;44.51
71621;BME280;59471;42.254;23.102;2023-07-20T08:41:46;95481.88;;;30.17;44.39
71621;BME280;59471;42.254;23.102;2023-07-20T08:44:12;95480.25;;;30.07;45.24
71621;BME280;59471;42.254;23.102;2023-07-20T08:46:38;95479.56;;;30.24;44.04
71621;BME280;59471;42.254;23.102;2023-07-20T08:49:04;95483.09;;;30.02;42.69
71621;BME280;59471;42.254;23.102;2023-07-20T08:51:31;95485.63;;;30.30;43.42
71621;BME280;59471;42.254;23.102;2023-07-20T08:53:58;95481.78;;;29.68;42.39
71621;BME280;59471;42.254;23.102;2023-07-20T08:56:25;95482.44;;;29.74;42.89
71621;BME280;59471;42.254;23.102;2023-07-20T08:58:54;95489.47;;;30.06;42.68
71621;BME280;59471;42.254;23.102;2023-07-20T09:01:21;95491.66;;;30.27;43.21
71621;BME280;59471;42.254;23.102;2023-07-20T09:03:47;95499.81;;;30.44;42.89
71621;BME280;59471;42.254;23.102;2023-07-20T09:06:14;95491.44;;;30.54;41.53
71621;BME280;59471;42.254;23.102;2023-07-20T09:08:41;95486.78;;;29.84;42.77
71621;BME280;59471;42.254;23.102;2023-07-20T09:11:07;95494.75;;;30.51;42.33
71621;BME280;59471;42.254;23.102;2023-07-20T09:13:34;95482.75;;;30.26;42.92
71621;BME280;59471;42.254;23.102;2023-07-20T09:15:59;95480.16;;;30.52;42.21
71621;BME280;59471;42.254;23.102;2023-07-20T09:18:25;95481.56;;;30.50;41.12
71621;BME280;59471;42.254;23.102;2023-07-20T09:20:53;95478.66;;;30.37;41.60
71621;BME280;59471;42.254;23.102;2023-07-20T09:23:32;95483.22;;;30.68;40.62
71621;BME280;59471;42.254;23.102;2023-07-20T09:25:59;95478.34;;;30.87;41.02
71621;BME280;59471;42.254;23.102;2023-07-20T09:28:26;95477.56;;;30.87;39.39
71621;BME280;59471;42.254;23.102;2023-07-20T09:30:54;95472.81;;;31.10;39.08
71621;BME280;59471;42.254;23.102;2023-07-20T09:33:24;95464.38;;;31.46;39.08
71621;BME280;59471;42.254;23.102;2023-07-20T09:35:49;95460.34;;;31.96;41.23
71621;BME280;59471;42.254;23.102;2023-07-20T09:38:15;95459.69;;;32.07;39.15
71621;BME280;59471;42.254;23.102;2023-07-20T09:40:41;95465.13;;;32.37;37.62
71621;BME280;59471;42.254;23.102;2023-07-20T09:43:08;95467.31;;;32.14;39.04
71621;BME280;59471;42.254;23.102;2023-07-20T09:45:43;95454.50;;;32.32;38.42
71621;BME280;59471;42.254;23.102;2023-07-20T09:48:10;95446.41;;;32.53;39.80
71621;BME280;59471;42.254;23.102;2023-07-20T09:50:49;95453.13;;;32.56;37.79
71621;BME280;59471;42.254;23.102;2023-07-20T09:53:17;95458.50;;;32.26;39.30
71621;BME280;59471;42.254;23.102;2023-07-20T09:55:46;95446.44;;;32.06;39.06
71621;BME280;59471;42.254;23.102;2023-07-20T09:58:13;95455.41;;;32.36;38.80
71621;BME280;59471;42.254;23.102;2023-07-20T10:00:41;95445.72;;;32.35;38.75
71621;BME280;59471;42.254;23.102;2023-07-20T10:03:11;95449.97;;;32.06;37.83
71621;BME280;59471;42.254;23.102;2023-07-20T10:05:43;95459.34;;;32.09;38.05
71621;BME280;59471;42.254;23.102;2023-07-20T10:08:19;95453.97;;;32.39;38.83
71621;BME280;59471;42.254;23.102;2023-07-20T10:10:47;95460.59;;;32.88;37.25
71621;BME280;59471;42.254;23.102;2023-07-20T10:13:26;95447.66;;;32.64;37.11
71621;BME280;59471;42.254;23.102;2023-07-20T10:15:59;95447.06;;;32.50;37.77
71621;BME280;59471;42.254;23.102;2023-07-20T10:18:31;95444.47;;;32.24;37.72
71621;BME280;59471;42.254;23.102;2023-07-20T10:21:04;95445.97;;;32.13;38.30
71621;BME280;59471;42.254;23.102;2023-07-20T10:23:32;95446.03;;;32.25;38.13
71621;BME280;59471;42.254;23.102;2023-07-20T10:25:58;95444.06;;;32.51;37.19
71621;BME280;59471;42.254;23.102;2023-07-20T10:28:26;95436.81;;;32.64;37.30
71621;BME280;59471;42.254;23.102;2023-07-20T10:30:53;95437.50;;;32.82;37.29
71621;BME280;59471;42.254;23.102;2023-07-20T10:33:19;95431.59;;;32.80;37.31
71621;BME280;59471;42.254;23.102;2023-07-20T10:35:52;95448.50;;;33.07;37.61
71621;BME280;59471;42.254;23.102;2023-07-20T10:38:17;95441.88;;;32.95;37.46
71621;BME280;59471;42.254;23.102;2023-07-20T10:40:54;95442.94;;;33.24;36.52
71621;BME280;59471;42.254;23.102;2023-07-20T10:43:20;95442.81;;;33.20;35.12
71621;BME280;59471;42.254;23.102;2023-07-20T10:45:50;95445.69;;;32.94;37.44
71621;BME280;59471;42.254;23.102;2023-07-20T10:48:22;95435.66;;;33.16;35.33
71621;BME280;59471;42.254;23.102;2023-07-20T10:51:19;95434.63;;;33.41;35.41
71621;BME280;59471;42.254;23.102;2023-07-20T10:53:48;95432.22;;;33.28;34.76
71621;BME280;59471;42.254;23.102;2023-07-20T10:56:19;95432.47;;;33.56;33.99
71621;BME280;59471;42.254;23.102;2023-07-20T10:58:47;95423.59;;;33.46;36.28
71621;BME280;59471;42.254;23.102;2023-07-20T11:01:16;95419.06;;;33.72;34.99
71621;BME280;59471;42.254;23.102;2023-07-20T11:03:43;95421.56;;;33.77;34.00
71621;BME280;59471;42.254;23.102;2023-07-20T11:09:14;95409.88;;;34.22;33.01
71621;BME280;59471;42.254;23.102;2023-07-20T11:11:41;95402.91;;;34.00;32.79
71621;BME280;59471;42.254;23.102;2023-07-20T11:14:09;95398.53;;;34.20;33.75
71621;BME280;59471;42.254;23.102;2023-07-20T11:16:46;95392.31;;;34.31;34.24
71621;BME280;59471;42.254;23.102;2023-07-20T11:19:17;95390.59;;;34.51;32.21
71621;BME280;59471;42.254;23.102;2023-07-20T11:21:45;95386.88;;;34.31;32.66
71621;BME280;59471;42.254;23.102;2023-07-20T11:24:12;95389.47;;;34.16;32.31
71621;BME280;59471;42.254;23.102;2023-07-20T11:27:07;95380.88;;;34.13;32.04
71621;BME280;59471;42.254;23.102;2023-07-20T11:29:34;95378.91;;;33.89;32.94
71621;BME280;59471;42.254;23.102;2023-07-20T11:32:02;95374.13;;;33.74;32.97
71621;BME280;59471;42.254;23.102;2023-07-20T11:34:30;95363.66;;;34.09;31.96
71621;BME280;59471;42.254;23.102;2023-07-20T11:36:57;95361.94;;;34.17;32.91
71621;BME280;59471;42.254;23.102;2023-07-20T11:39:23;95366.91;;;34.40;33.11
71621;BME280;59471;42.254;23.102;2023-07-20T11:41:53;95363.31;;;34.11;33.50
71621;BME280;59471;42.254;23.102;2023-07-20T11:44:24;95363.09;;;34.41;34.01
71621;BME280;59471;42.254;23.102;2023-07-20T11:47:09;95349.59;;;34.44;32.59
71621;BME280;59471;42.254;23.102;2023-07-20T11:49:38;95350.38;;;34.57;33.16
71621;BME280;59471;42.254;23.102;2023-07-20T11:52:06;95352.97;;;34.78;32.56
71621;BME280;59471;42.254;23.102;2023-07-20T11:54:34;95347.34;;;34.87;32.98
71621;BME280;59471;42.254;23.102;2023-07-20T11:57:01;95339.81;;;34.68;32.88
71621;BME280;59471;42.254;23.102;2023-07-20T11:59:28;95335.34;;;34.23;33.17
71621;BME280;59471;42.254;23.102;2023-07-20T12:01:53;95335.44;;;34.26;33.36
71621;BME280;59471;42.254;23.102;2023-07-20T12:04:19;95329.63;;;35.05;33.51
71621;BME280;59471;42.254;23.102;2023-07-20T12:06:45;95324.44;;;35.00;33.09
71621;BME280;59471;42.254;23.102;2023-07-20T12:09:16;95323.84;;;35.50;31.28
71621;BME280;59471;42.254;23.102;2023-07-20T12:11:43;95316.59;;;35.26;33.05
71621;BME280;59471;42.254;23.102;2023-07-20T12:14:12;95319.84;;;35.60;33.06
71621;BME280;59471;42.254;23.102;2023-07-20T12:16:38;95318.97;;;35.88;31.71
71621;BME280;59471;42.254;23.102;2023-07-20T12:19:08;95317.47;;;35.31;30.03
71621;BME280;59471;42.254;23.102;2023-07-20T12:21:38;95313.63;;;34.75;32.31
71621;BME280;59471;42.254;23.102;2023-07-20T12:24:05;95317.50;;;34.74;33.09
71621;BME280;59471;42.254;23.102;2023-07-20T12:26:33;95305.31;;;34.56;32.41
71621;BME280;59471;42.254;23.102;2023-07-20T12:28:59;95301.88;;;34.71;32.74
71621;BME280;59471;42.254;23.102;2023-07-20T12:31:26;95305.22;;;34.80;32.60
71621;BME280;59471;42.254;23.102;2023-07-20T12:33:53;95311.41;;;33.67;33.75
71621;BME280;59471;42.254;23.102;2023-07-20T12:36:22;95295.09;;;34.65;33.11
71621;BME280;59471;42.254;23.102;2023-07-20T12:38:49;95291.28;;;35.10;32.39
71621;BME280;59471;42.254;23.102;2023-07-20T12:41:14;95300.59;;;34.81;33.13
71621;BME280;59471;42.254;23.102;2023-07-20T12:43:41;95292.00;;;35.07;33.67
71621;BME280;59471;42.254;23.102;2023-07-20T12:46:07;95285.50;;;35.27;32.57
71621;BME280;59471;42.254;23.102;2023-07-20T12:48:33;95277.81;;;35.29;31.53
71621;BME280;59471;42.254;23.102;2023-07-20T12:50:59;95276.63;;;35.15;32.95
71621;BME280;59471;42.254;23.102;2023-07-20T12:53:25;95263.19;;;35.66;31.28
71621;BME280;59471;42.254;23.102;2023-07-20T12:55:50;95265.19;;;35.53;33.16
71621;BME280;59471;42.254;23.102;2023-07-20T12:58:16;95262.00;;;35.51;33.23
71621;BME280;59471;42.254;23.102;2023-07-20T13:00:41;95273.34;;;36.01;32.31
71621;BME280;59471;42.254;23.102;2023-07-20T13:03:07;95265.28;;;35.57;33.67